Time;durP1;ratioP1;P1;durP2;ratioP2;P2;SDS_P1;SDS_P2;PMS_P1;PMS_P2;Temp;Humidity;BMP_temperature;BMP_pressure;BME280_temperature;BME280_humidity;BME280_pressure;Samples;Min_cycle;Max_cycle;Signal;HPM_P1;HPM_P2
2022/09/07 01:31:27;;;;;;;;;;;;;;;17.53;100.00;101248.19;5071401;28;19921;-40
2022/09/07 01:34:00;;;;;;;;;;;;;;;17.54;100.00;101252.69;5073938;28;19928;-35
2022/09/07 01:36:33;;;;;;;;;;;;;;;17.56;100.00;101249.53;5073459;28;19928;-38
2022/09/07 01:39:02;;;;;;;;;;;;;;;17.55;100.00;101248.69;5073861;28;19936;-32
2022/09/07 01:41:33;;;;;;;;;;;;;;;17.56;100.00;101249.53;5073661;28;19940;-37
2022/09/07 01:44:03;;;;;;;;;;;;;;;17.56;100.00;101241.06;5073171;28;19924;-37
2022/09/07 01:46:35;;;;;;;;;;;;;;;17.56;100.00;101238.25;5073822;28;19933;-32
2022/09/07 01:49:05;;;;;;;;;;;;;;;17.56;100.00;101230.59;5073522;28;19928;-40
2022/09/07 01:51:34;;;;;;;;;;;;;;;17.58;100.00;101224.63;5072642;28;19925;-31
2022/09/07 01:54:05;;;;;;;;;;;;;;;17.58;100.00;101211.31;5073341;28;19928;-33
2022/09/07 01:56:34;;;;;;;;;;;;;;;17.60;100.00;101207.31;5072993;28;19974;-39
2022/09/07 01:59:04;;;;;;;;;;;;;;;17.59;100.00;101203.66;5073213;28;20397;-39
2022/09/07 02:01:36;;;;;;;;;;;;;;;17.58;100.00;101193.56;5073519;28;20412;-31
2022/09/07 02:04:07;;;;;;;;;;;;;;;17.60;100.00;101184.75;5072408;28;19970;-34
2022/09/07 02:06:39;;;;;;;;;;;;;;;17.58;100.00;101200.03;5073624;28;19928;-37
2022/09/07 02:09:10;;;;;;;;;;;;;;;17.58;100.00;101196.41;5072602;28;19928;-31
2022/09/07 02:11:40;;;;;;;;;;;;;;;17.56;100.00;101193.91;5072924;28;20332;-35
2022/09/07 02:14:09;;;;;;;;;;;;;;;17.55;100.00;101191.44;5072880;28;19935;-34
2022/09/07 02:16:41;;;;;;;;;;;;;;;17.53;100.00;101190.94;5072859;28;19935;-37
2022/09/07 02:19:13;;;;;;;;;;;;;;;17.52;100.00;101192.09;5072703;28;19935;-31
2022/09/07 02:21:42;;;;;;;;;;;;;;;17.52;100.00;101198.56;5073237;28;20239;-31
2022/09/07 02:24:12;;;;;;;;;;;;;;;17.53;100.00;101194.59;5072352;28;20428;-32
2022/09/07 02:26:41;;;;;;;;;;;;;;;17.54;100.00;101199.06;5052503;28;20416;-31
2022/09/07 02:29:09;;;;;;;;;;;;;;;17.55;100.00;101191.44;5066018;28;19928;-33
2022/09/07 02:31:36;;;;;;;;;;;;;;;17.56;100.00;101179.81;5072197;28;19939;-39
2022/09/07 02:34:05;;;;;;;;;;;;;;;17.56;100.00;101182.63;5072757;28;19935;-32
2022/09/07 02:36:35;;;;;;;;;;;;;;;17.56;100.00;101176.97;5058284;28;19931;-35
2022/09/07 02:39:03;;;;;;;;;;;;;;;17.56;100.00;101179.81;5071948;28;19925;-38
2022/09/07 02:41:32;;;;;;;;;;;;;;;17.56;100.00;101188.28;5071462;28;19931;-32
2022/09/07 02:44:01;;;;;;;;;;;;;;;17.55;100.00;101186.63;5072360;28;20396;-36
2022/09/07 02:46:36;;;;;;;;;;;;;;;17.53;100.00;101176.81;5071496;28;20385;-33
2022/09/07 02:49:08;;;;;;;;;;;;;;;17.53;100.00;101185.28;5071609;28;19967;-32
2022/09/07 02:51:40;;;;;;;;;;;;;;;17.52;100.00;101187.28;5070134;28;19934;-35
2022/09/07 02:54:15;;;;;;;;;;;;;;;17.53;100.00;101188.13;5069921;28;20003;-40
2022/09/07 02:56:50;;;;;;;;;;;;;;;17.51;100.00;101191.28;5070811;28;19993;-33
2022/09/07 02:59:23;;;;;;;;;;;;;;;17.50;100.00;101189.63;5071405;28;19928;-34
2022/09/07 03:01:55;;;;;;;;;;;;;;;17.48;100.00;101191.94;5070991;28;19935;-33
2022/09/07 03:04:25;;;;;;;;;;;;;;;17.46;100.00;101184.97;5071176;28;19936;-36
2022/09/07 03:06:59;;;;;;;;;;;;;;;17.45;100.00;101186.97;5070985;28;19925;-35
2022/09/07 03:09:29;;;;;;;;;;;;;;;17.45;100.00;101195.44;5057131;28;20431;-36
2022/09/07 03:11:56;;;;;;;;;;;;;;;17.44;100.00;101185.31;5071858;28;19925;-34
2022/09/07 03:14:25;;;;;;;;;;;;;;;17.44;100.00;101193.78;5070211;28;19936;-32
2022/09/07 03:16:55;;;;;;;;;;;;;;;17.46;100.00;101199.09;5071667;28;19924;-33
2022/09/07 03:19:23;;;;;;;;;;;;;;;17.45;100.00;101203.91;5071595;28;19924;-41
2022/09/07 03:21:50;;;;;;;;;;;;;;;17.45;100.00;101203.91;5067893;28;19951;-34
2022/09/07 03:24:19;;;;;;;;;;;;;;;17.44;100.00;101195.78;5072081;28;19925;-33
2022/09/07 03:26:49;;;;;;;;;;;;;;;17.38;100.00;101186.69;5071161;28;19932;-32
2022/09/07 03:29:17;;;;;;;;;;;;;;;17.34;100.00;101180.06;5071221;28;20281;-35
2022/09/07 03:31:44;;;;;;;;;;;;;;;17.31;100.00;101186.38;5071324;28;20389;-32
2022/09/07 03:34:12;;;;;;;;;;;;;;;17.29;100.00;101179.41;5071734;28;19936;-40
2022/09/07 03:36:40;;;;;;;;;;;;;;;17.26;100.00;101180.91;5070923;28;19931;-35
2022/09/07 03:39:08;;;;;;;;;;;;;;;17.27;100.00;101184.53;5071995;28;19931;-36
2022/09/07 03:41:37;;;;;;;;;;;;;;;17.25;100.00;101189.69;5071218;28;19929;-38
2022/09/07 03:44:05;;;;;;;;;;;;;;;17.22;100.00;101194.84;5071379;28;19928;-39
2022/09/07 03:46:33;;;;;;;;;;;;;;;17.22;100.00;101191.19;5071020;28;19924;-32
2022/09/07 03:49:00;;;;;;;;;;;;;;;17.21;100.00;101181.06;5070904;28;19929;-39
2022/09/07 03:51:28;;;;;;;;;;;;;;;17.22;100.00;101179.91;5071371;28;19928;-32
2022/09/07 03:53:56;;;;;;;;;;;;;;;17.21;100.00;101181.06;5066507;28;19928;-34
2022/09/07 03:56:24;;;;;;;;;;;;;;;17.20;100.00;101182.22;5070400;28;19925;-39
2022/09/07 03:58:54;;;;;;;;;;;;;;;17.19;100.00;101178.59;5071104;28;19928;-32
2022/09/07 04:01:22;;;;;;;;;;;;;;;17.17;100.00;101175.31;5071389;28;19932;-38
2022/09/07 04:03:51;;;;;;;;;;;;;;;17.16;100.00;101175.63;5070674;28;19925;-43
2022/09/07 04:06:19;;;;;;;;;;;;;;;17.14;100.00;101180.78;5071408;28;20275;-33
2022/09/07 04:08:46;;;;;;;;;;;;;;;17.12;100.00;101183.09;5052795;28;20007;-38
2022/09/07 04:11:15;;;;;;;;;;;;;;;17.09;100.00;101178.13;5070574;28;19985;-38
2022/09/07 04:13:43;;;;;;;;;;;;;;;17.06;100.00;101165.53;5071449;28;19929;-37
2022/09/07 04:16:14;;;;;;;;;;;;;;;17.03;100.00;101159.72;5073243;28;20389;-34
2022/09/07 04:18:41;;;;;;;;;;;;;;;17.01;100.00;101162.88;5074712;28;19924;-32
2022/09/07 04:21:11;;;;;;;;;;;;;;;16.97;100.00;101176.00;5075461;28;19933;-36
2022/09/07 04:23:39;;;;;;;;;;;;;;;16.95;100.00;101174.69;5074583;28;19924;-32
2022/09/07 04:26:07;;;;;;;;;;;;;;;16.91;100.00;101182.16;5075040;28;19924;-32
2022/09/07 04:28:34;;;;;;;;;;;;;;;16.88;100.00;101166.72;5074999;28;19932;-37
2022/09/07 04:31:02;;;;;;;;;;;;;;;16.86;100.00;101172.69;5074374;28;19925;-34
2022/09/07 04:33:32;;;;;;;;;;;;;;;16.83;100.00;101173.34;5074731;28;19928;-37
2022/09/07 04:36:00;;;;;;;;;;;;;;;16.80;100.00;101173.19;5075086;28;19925;-32
2022/09/07 04:38:28;;;;;;;;;;;;;;;16.77;100.00;101180.34;5073904;28;19968;-31
2022/09/07 04:41:00;;;;;;;;;;;;;;;16.75;100.00;101188.31;5075134;28;20039;-37
2022/09/07 04:43:27;;;;;;;;;;;;;;;16.73;100.00;101178.53;5074245;28;20392;-34
2022/09/07 04:45:55;;;;;;;;;;;;;;;16.70;100.00;101180.00;5074340;28;20011;-32
2022/09/07 04:48:23;;;;;;;;;;;;;;;16.67;100.00;101180.69;5074441;28;19936;-32
2022/09/07 04:50:52;;;;;;;;;;;;;;;16.65;100.00;101176.53;5073363;28;19924;-32
2022/09/07 04:53:19;;;;;;;;;;;;;;;16.62;100.00;101163.91;5073900;28;19985;-37
2022/09/07 04:55:47;;;;;;;;;;;;;;;16.59;100.00;101167.38;5074466;28;19928;-33
2022/09/07 04:58:14;;;;;;;;;;;;;;;16.56;100.00;101165.25;5074110;28;19975;-36
2022/09/07 05:00:42;;;;;;;;;;;;;;;16.54;100.00;101167.56;5073758;28;19924;-31
2022/09/07 05:03:10;;;;;;;;;;;;;;;16.53;100.00;101168.72;5074138;28;20288;-31
2022/09/07 05:05:38;;;;;;;;;;;;;;;16.51;100.00;101171.03;5073709;28;20377;-31
2022/09/07 05:08:07;;;;;;;;;;;;;;;16.50;100.00;101173.03;5073672;28;19928;-33
2022/09/07 05:10:34;;;;;;;;;;;;;;;16.50;100.00;101172.19;5074358;28;19928;-35
2022/09/07 05:13:02;;;;;;;;;;;;;;;16.49;100.00;101171.38;5073851;28;20387;-38
2022/09/07 05:15:30;;;;;;;;;;;;;;;16.49;100.00;101170.53;5068991;28;20400;-38
2022/09/07 05:17:57;;;;;;;;;;;;;;;16.46;100.00;101172.03;5074063;28;20385;-43
2022/09/07 05:20:25;;;;;;;;;;;;;;;16.45;100.00;101180.81;5073295;28;19924;-39
2022/09/07 05:22:58;;;;;;;;;;;;;;;16.43;100.00;101183.97;5074599;28;19924;-33
2022/09/07 05:25:28;;;;;;;;;;;;;;;16.44;100.00;101190.41;5073162;28;20279;-33
2022/09/07 05:27:56;;;;;;;;;;;;;;;16.42;100.00;101185.13;5073327;28;19936;-32
2022/09/07 05:30:23;;;;;;;;;;;;;;;16.42;100.00;101182.31;5073661;28;19957;-39
2022/09/07 05:33:11;;;;;;;;;;;;;;;16.41;100.00;101191.06;5074153;28;19974;-31
2022/09/07 05:35:38;;;;;;;;;;;;;;;16.41;100.00;101191.06;5072974;28;19978;-32
2022/09/07 05:38:06;;;;;;;;;;;;;;;16.40;100.00;101195.88;5074094;28;19924;-32
2022/09/07 05:40:37;;;;;;;;;;;;;;;16.39;100.00;101201.84;5072558;28;21342;-41
2022/09/07 05:43:08;;;;;;;;;;;;;;;16.39;100.00;101201.84;5073642;28;20133;-36
2022/09/07 05:45:36;;;;;;;;;;;;;;;16.38;100.00;101209.50;5073441;28;19932;-37
2022/09/07 05:48:03;;;;;;;;;;;;;;;16.38;100.00;101203.03;5073370;28;19978;-35
2022/09/07 05:50:31;;;;;;;;;;;;;;;16.39;100.00;101219.56;5072965;28;19928;-36
2022/09/07 05:52:59;;;;;;;;;;;;;;;16.39;100.00;101228.03;5073186;28;19935;-36
2022/09/07 05:55:26;;;;;;;;;;;;;;;16.39;100.00;101235.63;5072031;28;20293;-33
2022/09/07 05:57:58;;;;;;;;;;;;;;;16.40;100.00;101245.75;5073167;28;19930;-33
2022/09/07 06:00:26;;;;;;;;;;;;;;;16.39;100.00;101250.56;5073274;28;19928;-32
2022/09/07 06:02:53;;;;;;;;;;;;;;;16.40;100.00;101242.94;5072536;28;19924;-32
2022/09/07 06:05:21;;;;;;;;;;;;;;;16.41;100.00;101250.22;5073484;28;19928;-31
2022/09/07 06:07:48;;;;;;;;;;;;;;;16.44;100.00;101241.94;5050791;28;19933;-38
2022/09/07 06:10:16;;;;;;;;;;;;;;;16.45;100.00;101243.63;5072591;28;20317;-37
2022/09/07 06:13:05;;;;;;;;;;;;;;;16.49;100.00;101238.16;5069406;28;19928;-32
2022/09/07 06:15:33;;;;;;;;;;;;;;;16.52;100.00;101246.78;5056631;28;19932;-32
2022/09/07 06:18:01;;;;;;;;;;;;;;;16.55;100.00;101242.47;5072800;28;20246;-34
2022/09/07 06:20:28;;;;;;;;;;;;;;;16.60;100.00;101244.28;5073246;28;20289;-37
2022/09/07 06:22:56;;;;;;;;;;;;;;;16.62;100.00;101242.78;5072735;28;19925;-32
2022/09/07 06:25:23;;;;;;;;;;;;;;;16.66;100.00;101238.19;5072270;28;19931;-32
2022/09/07 06:27:52;;;;;;;;;;;;;;;16.70;100.00;101239.19;5071054;28;19935;-30
2022/09/07 06:30:21;;;;;;;;;;;;;;;16.76;100.00;101234.22;5073046;28;19924;-32
2022/09/07 06:32:49;;;;;;;;;;;;;;;16.80;100.00;101240.84;5071656;28;19929;-31
2022/09/07 06:35:17;;;;;;;;;;;;;;;16.86;100.00;101245.97;5072496;28;20444;-32
2022/09/07 06:37:44;;;;;;;;;;;;;;;16.93;100.00;101247.47;5071236;28;19935;-32
2022/09/07 06:40:15;;;;;;;;;;;;;;;17.00;100.00;101250.59;5072474;28;19929;-31
2022/09/07 06:42:42;;;;;;;;;;;;;;;17.07;100.00;101254.59;5073161;28;19928;-31
2022/09/07 06:45:11;;;;;;;;;;;;;;;17.16;100.00;101257.41;5053482;28;19987;-32
2022/09/07 06:47:40;;;;;;;;;;;;;;;17.26;100.00;101256.22;5072015;28;19975;-40
2022/09/07 06:50:08;;;;;;;;;;;;;;;17.41;100.00;101256.50;5072370;28;19925;-38
2022/09/07 06:52:37;;;;;;;;;;;;;;;17.64;100.00;101261.94;5071909;28;20378;-31
2022/09/07 06:55:24;;;;;;;;;;;;;;;17.95;100.00;101267.34;5059560;28;19924;-36
2022/09/07 06:57:53;;;;;;;;;;;;;;;18.31;100.00;101269.63;5071597;28;19925;-32
2022/09/07 07:00:20;;;;;;;;;;;;;;;18.70;100.00;101276.88;5071622;28;19929;-38
2022/09/07 07:02:49;;;;;;;;;;;;;;;19.07;100.00;101275.06;5071978;28;20094;-31
2022/09/07 07:05:17;;;;;;;;;;;;;;;19.41;100.00;101279.56;5071001;28;20017;-33
2022/09/07 07:07:44;;;;;;;;;;;;;;;19.85;100.00;101277.94;5071431;28;20270;-31
2022/09/07 07:10:12;;;;;;;;;;;;;;;20.32;100.00;101274.66;5071740;28;19984;-38
2022/09/07 07:12:40;;;;;;;;;;;;;;;20.95;100.00;101282.38;5071132;28;19931;-38
2022/09/07 07:15:07;;;;;;;;;;;;;;;21.54;100.00;101276.00;5071916;28;20289;-34
2022/09/07 07:17:35;;;;;;;;;;;;;;;21.98;100.00;101268.22;5071282;28;19924;-38
2022/09/07 07:20:05;;;;;;;;;;;;;;;22.37;100.00;101268.44;5071019;28;19936;-37
2022/09/07 07:22:33;;;;;;;;;;;;;;;22.87;100.00;101276.13;5071752;28;20271;-33
2022/09/07 07:25:16;;;;;;;;;;;;;;;23.47;100.00;101272.88;5071111;28;19924;-32
2022/09/07 07:27:45;;;;;;;;;;;;;;;23.97;100.00;101271.84;5071191;28;19946;-34
2022/09/07 07:30:13;;;;;;;;;;;;;;;24.24;100.00;101275.56;5071491;28;19939;-32
2022/09/07 07:32:41;;;;;;;;;;;;;;;24.41;100.00;101275.03;5071368;28;19931;-35
2022/09/07 07:35:22;;;;;;;;;;;;;;;24.28;100.00;101282.97;5065770;28;19928;-33
2022/09/07 07:37:51;;;;;;;;;;;;;;;23.97;100.00;101278.34;5071624;28;19924;-34
2022/09/07 07:40:19;;;;;;;;;;;;;;;23.75;100.00;101284.03;5066382;28;20459;-33
2022/09/07 07:42:52;;;;;;;;;;;;;;;23.55;100.00;101281.25;5071144;28;19967;-35
2022/09/07 07:45:20;;;;;;;;;;;;;;;23.40;100.00;101292.66;5071248;28;19924;-33
2022/09/07 07:48:07;;;;;;;;;;;;;;;23.34;100.00;101292.16;5070727;28;20439;-37
2022/09/07 07:50:36;;;;;;;;;;;;;;;23.32;100.00;101291.72;5070341;28;19928;-39
2022/09/07 07:53:04;;;;;;;;;;;;;;;23.35;100.00;101294.66;5071573;28;19924;-37
2022/09/07 07:55:51;;;;;;;;;;;;;;;23.33;100.00;101296.22;5065573;28;20385;-40
2022/09/07 07:58:19;;;;;;;;;;;;;;;23.17;100.00;101298.31;5071230;28;20404;-39
2022/09/07 08:00:47;;;;;;;;;;;;;;;22.91;100.00;101298.97;5070218;28;19928;-43
2022/09/07 08:03:21;;;;;;;;;;;;;;;22.63;100.00;101294.22;5071158;28;19998;-34
2022/09/07 08:05:50;;;;;;;;;;;;;;;22.59;100.00;101301.84;5070833;28;20267;-34
2022/09/07 08:08:18;;;;;;;;;;;;;;;22.88;100.00;101294.84;5071570;28;19925;-33
2022/09/07 08:10:46;;;;;;;;;;;;;;;23.26;100.00;101307.44;5070399;28;19929;-32
2022/09/07 08:13:14;;;;;;;;;;;;;;;23.78;100.00;101304.03;5071311;28;19928;-38
2022/09/07 08:15:45;;;;;;;;;;;;;;;24.21;100.00;101305.63;5070738;28;19925;-41
2022/09/07 08:18:13;;;;;;;;;;;;;;;24.60;100.00;101312.00;5070715;28;19990;-32
2022/09/07 08:20:40;;;;;;;;;;;;;;;24.97;96.61;101311.38;5070908;28;19924;-32
2022/09/07 08:23:10;;;;;;;;;;;;;;;25.20;93.62;101312.09;5070457;28;19929;-40
2022/09/07 08:25:38;;;;;;;;;;;;;;;25.41;91.07;101317.25;5070908;28;19935;-39
2022/09/07 08:28:05;;;;;;;;;;;;;;;25.54;93.43;101315.78;5071445;28;20332;-37
2022/09/07 08:30:33;;;;;;;;;;;;;;;25.95;90.67;101319.53;5070567;28;19948;-34
2022/09/07 08:33:00;;;;;;;;;;;;;;;25.90;82.48;101321.91;5071055;28;19929;-37
2022/09/07 08:35:28;;;;;;;;;;;;;;;26.01;86.13;101314.25;5070651;28;19924;-33
2022/09/07 08:37:55;;;;;;;;;;;;;;;26.22;85.76;101311.59;5070084;28;20344;-34
2022/09/07 08:40:25;;;;;;;;;;;;;;;26.22;82.13;101314.47;5070851;28;20245;-32
2022/09/07 08:42:59;;;;;;;;;;;;;;;25.83;83.18;101304.69;5070920;28;19929;-32
2022/09/07 08:45:29;;;;;;;;;;;;;;;25.46;84.82;101311.19;5070493;28;19925;-41
2022/09/07 08:47:57;;;;;;;;;;;;;;;25.50;86.92;101303.50;5070675;28;19987;-34
2022/09/07 08:50:28;;;;;;;;;;;;;;;25.60;86.66;101291.34;5070400;28;19932;-33
2022/09/07 08:52:58;;;;;;;;;;;;;;;25.93;89.16;101301.13;5062581;28;19977;-38
2022/09/07 08:55:30;;;;;;;;;;;;;;;26.14;86.57;101304.19;5070858;28;19932;-35
2022/09/07 08:58:01;;;;;;;;;;;;;;;26.25;81.29;101292.81;5066145;28;19990;-33
2022/09/07 09:00:29;;;;;;;;;;;;;;;26.01;80.19;101297.91;5070264;28;19924;-40
2022/09/07 09:02:57;;;;;;;;;;;;;;;25.65;79.91;101315.94;5073479;28;19967;-32
2022/09/07 09:05:50;;;;;;;;;;;;;;;25.19;83.26;101301.88;5073966;28;20010;-39
2022/09/07 09:08:30;;;;;;;;;;;;;;;24.81;83.60;101317.22;5073998;28;20020;-34
2022/09/07 09:11:01;;;;;;;;;;;;;;;24.39;87.18;101303.94;5074133;28;19925;-32
2022/09/07 09:13:35;;;;;;;;;;;;;;;24.31;87.32;101312.75;5069212;28;19928;-38
2022/09/07 09:16:05;;;;;;;;;;;;;;;24.35;88.95;101303.06;5074274;28;20076;-34
2022/09/07 09:18:43;;;;;;;;;;;;;;;24.38;91.25;101296.56;5073503;28;19928;-29
2022/09/07 09:21:13;;;;;;;;;;;;;;;24.73;91.35;101306.91;5073673;28;19971;-35
2022/09/07 09:23:41;;;;;;;;;;;;;;;25.17;88.87;101303.50;5073595;28;19963;-38
2022/09/07 09:26:13;;;;;;;;;;;;;;;25.56;88.90;101301.94;5074069;28;19925;-38
2022/09/07 09:28:41;;;;;;;;;;;;;;;26.03;83.34;101298.34;5073213;28;20313;-32
2022/09/07 09:31:15;;;;;;;;;;;;;;;26.23;81.24;101298.13;5073938;28;20443;-32
2022/09/07 09:33:42;;;;;;;;;;;;;;;26.14;78.90;101297.66;5073034;28;19958;-34
2022/09/07 09:36:23;;;;;;;;;;;;;;;26.07;80.32;101299.22;5073825;28;20397;-34
2022/09/07 09:38:50;;;;;;;;;;;;;;;26.26;81.96;101301.00;5073281;28;19950;-32
2022/09/07 09:41:20;;;;;;;;;;;;;;;26.46;74.96;101303.66;5073457;28;19974;-40
2022/09/07 09:43:52;;;;;;;;;;;;;;;26.70;77.48;101297.28;5073138;28;19924;-38
2022/09/07 09:46:22;;;;;;;;;;;;;;;26.86;79.29;101305.56;5053461;28;20401;-38
2022/09/07 09:48:53;;;;;;;;;;;;;;;27.07;76.68;101297.13;5066860;28;20405;-41
2022/09/07 09:51:22;;;;;;;;;;;;;;;27.19;71.35;101295.94;5073793;28;20468;-38
2022/09/07 09:54:20;;;;;;;;;;;;;;;27.29;72.67;101289.44;5072850;28;19983;-42
2022/09/07 09:56:49;;;;;;;;;;;;;;;27.20;72.60;101297.59;5053017;28;19971;-33
2022/09/07 09:59:22;;;;;;;;;;;;;;;27.35;69.05;101299.31;5067681;28;19955;-33
2022/09/07 10:02:24;;;;;;;;;;;;;;;27.37;69.34;101285.41;5053214;28;20305;-42
2022/09/07 10:05:20;;;;;;;;;;;;;;;27.37;74.36;101297.69;5053921;28;19924;-33
2022/09/07 10:07:51;;;;;;;;;;;;;;;27.80;74.42;101294.94;5073416;28;19928;-33
2022/09/07 10:10:19;;;;;;;;;;;;;;;28.20;74.41;101287.22;5067292;28;20328;-34
2022/09/07 10:12:52;;;;;;;;;;;;;;;28.42;68.03;101286.81;5072564;28;19924;-33
2022/09/07 10:15:25;;;;;;;;;;;;;;;28.66;69.87;101290.91;5072635;28;20274;-41
2022/09/07 10:17:53;;;;;;;;;;;;;;;28.93;64.97;101285.53;5072773;28;19975;-40
2022/09/07 10:20:30;;;;;;;;;;;;;;;28.76;62.33;101286.38;5069786;28;19986;-37
2022/09/07 10:22:59;;;;;;;;;;;;;;;28.69;64.07;101297.88;5071384;28;19928;-34
2022/09/07 10:25:28;;;;;;;;;;;;;;;28.30;61.14;101293.00;5072615;28;19924;-31
2022/09/07 10:28:02;;;;;;;;;;;;;;;27.83;65.11;101301.91;5072182;28;20393;-35
2022/09/07 10:30:33;;;;;;;;;;;;;;;27.53;66.31;101297.31;5072032;28;19928;-44
2022/09/07 10:33:03;;;;;;;;;;;;;;;27.38;66.35;101301.34;5072841;28;19928;-36
2022/09/07 10:35:33;;;;;;;;;;;;;;;27.36;67.61;101298.09;5071851;28;19948;-38
2022/09/07 10:38:09;;;;;;;;;;;;;;;27.25;67.05;101300.91;5052105;28;19928;-38
2022/09/07 10:40:39;;;;;;;;;;;;;;;27.13;68.62;101303.31;5066997;28;19975;-33
2022/09/07 10:43:16;;;;;;;;;;;;;;;26.98;69.63;101302.38;5072100;28;19925;-42
2022/09/07 10:45:58;;;;;;;;;;;;;;;26.82;70.54;101291.22;5071954;28;19924;-33
2022/09/07 10:48:29;;;;;;;;;;;;;;;26.88;72.75;101286.75;5052331;28;19936;-38
2022/09/07 10:50:58;;;;;;;;;;;;;;;26.92;72.12;101292.53;5065849;28;19928;-38
2022/09/07 10:53:40;;;;;;;;;;;;;;;26.90;73.59;101294.97;5062191;28;19929;-39
2022/09/07 10:56:32;;;;;;;;;;;;;;;27.17;71.00;101286.94;5071431;28;19935;-32
2022/09/07 10:59:04;;;;;;;;;;;;;;;27.29;70.12;101292.31;5071566;28;20382;-37
2022/09/07 11:01:43;;;;;;;;;;;;;;;27.42;71.63;101288.66;5071596;28;19973;-41
2022/09/07 11:04:27;;;;;;;;;;;;;;;27.44;67.83;101285.41;5071995;28;19933;-34
2022/09/07 11:07:00;;;;;;;;;;;;;;;27.55;70.68;101288.31;5068241;28;20291;-32
2022/09/07 11:09:40;;;;;;;;;;;;;;;27.65;65.95;101279.75;5064297;28;20310;-41
2022/09/07 11:12:09;;;;;;;;;;;;;;;27.72;66.19;101274.06;5070631;28;19926;-36
2022/09/07 11:14:42;;;;;;;;;;;;;;;27.68;64.55;101267.47;5071798;28;19928;-38
2022/09/07 11:17:13;;;;;;;;;;;;;;;27.47;64.89;101278.03;5071405;28;19928;-38
2022/09/07 11:19:43;;;;;;;;;;;;;;;27.31;66.97;101273.50;5071687;28;19955;-39
2022/09/07 11:22:18;;;;;;;;;;;;;;;27.18;66.72;101269.31;5071142;28;19993;-37
2022/09/07 11:24:47;;;;;;;;;;;;;;;27.08;67.78;101279.53;5070885;28;19970;-39
2022/09/07 11:27:39;;;;;;;;;;;;;;;27.08;69.41;101278.72;5068235;28;19967;-41
2022/09/07 11:30:15;;;;;;;;;;;;;;;27.06;71.13;101276.25;5071704;28;20006;-37
2022/09/07 11:32:48;;;;;;;;;;;;;;;27.01;69.20;101281.53;5070879;28;19956;-33
2022/09/07 11:35:19;;;;;;;;;;;;;;;26.97;68.45;101277.84;5070834;28;19928;-39
2022/09/07 11:37:53;;;;;;;;;;;;;;;27.24;72.26;101281.22;5071064;28;19924;-30
2022/09/07 11:40:25;;;;;;;;;;;;;;;27.19;68.23;101276.72;5053335;28;19932;-36
2022/09/07 11:42:58;;;;;;;;;;;;;;;26.87;67.70;101273.66;5069058;28;19982;-31
2022/09/07 11:45:30;;;;;;;;;;;;;;;26.49;69.36;101266.47;5069954;28;19967;-33
2022/09/07 11:48:01;;;;;;;;;;;;;;;26.24;68.76;101269.09;5070892;28;19932;-31
2022/09/07 11:50:31;;;;;;;;;;;;;;;26.33;73.51;101263.09;5071606;28;19978;-36
2022/09/07 11:53:03;;;;;;;;;;;;;;;26.45;70.14;101262.75;5070677;28;20271;-29
2022/09/07 11:55:34;;;;;;;;;;;;;;;26.41;67.89;101257.00;5071098;28;20381;-38
2022/09/07 11:58:22;;;;;;;;;;;;;;;26.43;70.37;101260.28;5070882;28;19950;-28
2022/09/07 12:00:55;;;;;;;;;;;;;;;26.14;67.14;101252.69;5046521;28;20002;-32
2022/09/07 12:03:30;;;;;;;;;;;;;;;25.84;67.96;101264.25;5065405;28;20473;-32
2022/09/07 12:06:10;;;;;;;;;;;;;;;25.73;70.75;101257.63;5051162;28;20338;-30
2022/09/07 12:08:44;;;;;;;;;;;;;;;25.82;73.93;101260.97;5065771;28;19925;-31
2022/09/07 12:11:20;;;;;;;;;;;;;;;25.91;72.15;101254.94;5051528;28;19933;-37
2022/09/07 12:14:02;;;;;;;;;;;;;;;25.87;69.34;101254.91;5066357;28;20024;-38
2022/09/07 12:16:37;;;;;;;;;;;;;;;25.97;72.43;101262.78;5070876;28;19924;-40
2022/09/07 12:19:20;;;;;;;;;;;;;;;26.10;71.10;101257.56;5070783;28;19967;-33
2022/09/07 12:21:49;;;;;;;;;;;;;;;26.04;66.34;101254.22;5069056;28;20001;-30
2022/09/07 12:24:35;;;;;;;;;;;;;;;26.04;68.20;101256.28;5070598;28;20370;-31
2022/09/07 12:27:03;;;;;;;;;;;;;;;25.93;67.99;101256.19;5070933;28;19936;-35
2022/09/07 12:29:30;;;;;;;;;;;;;;;25.93;69.14;101253.34;5069895;28;19924;-32
2022/09/07 12:32:02;;;;;;;;;;;;;;;25.73;68.36;101249.06;5071503;28;19929;-33
2022/09/07 12:34:51;;;;;;;;;;;;;;;25.57;68.52;101260.72;5070304;28;19931;-34
2022/09/07 12:37:38;;;;;;;;;;;;;;;25.53;71.47;101251.25;5072840;28;19971;-38
2022/09/07 12:40:24;;;;;;;;;;;;;;;25.45;68.86;101251.56;5074727;28;19925;-37
2022/09/07 12:43:14;;;;;;;;;;;;;;;25.36;69.25;101249.03;5056721;28;20502;-34
2022/09/07 12:45:49;;;;;;;;;;;;;;;25.29;69.25;101246.91;5074585;28;19977;-30
2022/09/07 12:48:29;;;;;;;;;;;;;;;25.31;71.47;101257.94;5074539;28;19928;-29
2022/09/07 12:50:58;;;;;;;;;;;;;;;25.20;70.71;101246.38;5068587;28;20389;-31
2022/09/07 12:53:32;;;;;;;;;;;;;;;25.17;71.72;101252.06;5074731;28;20344;-29
2022/09/07 12:56:16;;;;;;;;;;;;;;;25.11;74.01;101245.06;5066826;28;19947;-36
2022/09/07 12:58:51;;;;;;;;;;;;;;;25.14;72.66;101244.28;5073857;28;19924;-31
2022/09/07 13:01:27;;;;;;;;;;;;;;;25.13;70.07;101242.63;5074660;28;19966;-36
2022/09/07 13:04:05;;;;;;;;;;;;;;;24.96;69.26;101242.03;5074101;28;20385;-29
2022/09/07 13:06:39;;;;;;;;;;;;;;;24.89;71.42;101230.47;5073841;28;20381;-28
2022/09/07 13:09:31;;;;;;;;;;;;;;;24.77;67.97;101235.63;5058819;28;19960;-34
2022/09/07 13:11:59;;;;;;;;;;;;;;;24.65;65.98;101240.34;5069465;28;19937;-35
2022/09/07 13:14:28;;;;;;;;;;;;;;;24.63;69.18;101230.50;5074126;28;19932;-40
2022/09/07 13:17:14;;;;;;;;;;;;;;;24.79;72.05;101238.88;5073939;28;19929;-37
2022/09/07 13:20:01;;;;;;;;;;;;;;;24.75;67.11;101227.44;5057893;28;19929;-31
2022/09/07 13:22:47;;;;;;;;;;;;;;;24.66;70.73;101226.88;5071060;28;19952;-29
2022/09/07 13:25:33;;;;;;;;;;;;;;;24.66;71.21;101219.16;5074290;28;19928;-30
2022/09/07 13:28:03;;;;;;;;;;;;;;;24.50;72.14;101226.25;5072712;28;19982;-39
2022/09/07 13:30:37;;;;;;;;;;;;;;;24.31;72.92;101216.59;5073278;28;20347;-31
2022/09/07 13:33:20;;;;;;;;;;;;;;;24.27;75.47;101215.72;5073218;28;19933;-31
2022/09/07 13:35:49;;;;;;;;;;;;;;;24.33;75.58;101221.94;5073119;28;19954;-30
2022/09/07 13:38:17;;;;;;;;;;;;;;;24.32;75.79;101218.25;5073641;28;19972;-38
2022/09/07 13:40:46;;;;;;;;;;;;;;;24.27;75.99;101221.44;5073206;28;19924;-33
2022/09/07 13:43:16;;;;;;;;;;;;;;;24.25;77.31;101215.28;5073447;28;19928;-39
2022/09/07 13:45:55;;;;;;;;;;;;;;;24.19;76.27;101218.81;5073437;28;20266;-39
2022/09/07 13:48:25;;;;;;;;;;;;;;;24.04;77.64;101210.03;5053660;28;19936;-35
2022/09/07 13:50:57;;;;;;;;;;;;;;;23.98;79.42;101213.59;5072446;28;19924;-31
2022/09/07 13:53:37;;;;;;;;;;;;;;;23.95;77.74;101206.63;5070619;28;19924;-32
2022/09/07 13:56:15;;;;;;;;;;;;;;;23.89;77.56;101210.19;5058082;28;19994;-34
2022/09/07 13:58:46;;;;;;;;;;;;;;;23.77;79.03;101208.38;5071859;28;20130;-32
2022/09/07 14:01:19;;;;;;;;;;;;;;;23.77;81.59;101211.22;5072092;28;19936;-38
2022/09/07 14:03:48;;;;;;;;;;;;;;;23.84;81.77;101207.66;5068589;28;20381;-30
2022/09/07 14:06:26;;;;;;;;;;;;;;;23.86;81.07;101196.69;5072159;28;20339;-33
2022/09/07 14:08:54;;;;;;;;;;;;;;;23.79;80.88;101197.38;5067571;28;19928;-33
2022/09/07 14:11:23;;;;;;;;;;;;;;;23.81;81.46;101206.38;5070542;28;19978;-29
2022/09/07 14:14:08;;;;;;;;;;;;;;;23.85;82.44;101201.56;5071842;28;19967;-29
2022/09/07 14:16:36;;;;;;;;;;;;;;;23.95;83.14;101203.78;5055710;28;19928;-30
2022/09/07 14:19:09;;;;;;;;;;;;;;;24.04;83.42;101203.50;5071648;28;19979;-32
2022/09/07 14:21:36;;;;;;;;;;;;;;;24.05;82.52;101205.97;5071817;28;19982;-30
2022/09/07 14:24:14;;;;;;;;;;;;;;;24.05;83.18;101205.16;5071027;28;19947;-30